X  CloseMetar Aviation Weather Data     EGGD Bristol International

Temperature

20°C Temperature

16°C Dewpoint

78% Humidity



Wind

13 KM/H

 8 MPH

 4 M/S

 7 KTS



240°
West South
West
Current Conditions

Clear Clear
Pressure 1018.92 (hPa) - 30.09 (in)
Visibility 6.2 (mi) - 10 (km)
Airport
Airport-code EGGD

Location Bristol International 9 (mi)

Metar:
EGGD 251750Z AUTO 24007KT 9999 NCD 20/16 Q1019

Time: 2019-08-25 18:50